createdAt,value
2024-03-05T00:00:27.202Z,90685.63
2024-03-05T00:02:53.879Z,90684.25
2024-03-05T00:05:20.672Z,90684.09
2024-03-05T00:07:47.485Z,90682.72
2024-03-05T00:10:14.593Z,90680.72
2024-03-05T00:12:41.656Z,90673.81
2024-03-05T00:15:08.756Z,90675.81
2024-03-05T00:17:35.507Z,90673.81
2024-03-05T00:20:02.390Z,90671.34
2024-03-05T00:22:29.377Z,90673.03
2024-03-05T00:24:56.362Z,90668.59
2024-03-05T00:27:23.114Z,90662.41
2024-03-05T00:29:49.839Z,90660.75
2024-03-05T00:32:17.057Z,90661.66
2024-03-05T00:34:43.787Z,90665.19
2024-03-05T00:37:10.551Z,90664.13
2024-03-05T00:39:37.344Z,90659.66
2024-03-05T00:42:04.892Z,90657.34
2024-03-05T00:44:31.668Z,90655.81
2024-03-05T00:46:58.519Z,90651.94
2024-03-05T00:49:25.449Z,90649.81
2024-03-05T00:51:52.137Z,90643.03
2024-03-05T00:54:18.887Z,90637.38
2024-03-05T00:56:45.716Z,90637.69
2024-03-05T00:59:12.652Z,90632.13
2024-03-05T01:01:40.827Z,90636.59
2024-03-05T01:04:09.156Z,90630.75
2024-03-05T01:06:36.029Z,90635.53
2024-03-05T01:09:03.817Z,90631.53
2024-03-05T01:11:31.107Z,90622.47
2024-03-05T01:13:58.769Z,90628.00
2024-03-05T01:16:27.607Z,90628.47
2024-03-05T01:18:56.496Z,90618.00
2024-03-05T01:21:23.282Z,90604.31
2024-03-05T01:23:50.054Z,90615.84
2024-03-05T01:26:16.901Z,90615.06
2024-03-05T01:28:44.116Z,90602.63
2024-03-05T01:31:10.918Z,90594.31
2024-03-05T01:33:38.860Z,90594.31
2024-03-05T01:36:05.852Z,90592.94
2024-03-05T01:38:32.584Z,90595.09
2024-03-05T01:40:59.333Z,90594.19
2024-03-05T01:43:26.165Z,90593.88
2024-03-05T01:45:52.870Z,90589.72
2024-03-05T01:48:19.535Z,90584.81
2024-03-05T01:50:46.423Z,90587.13
2024-03-05T01:53:13.539Z,90580.81
2024-03-05T01:55:40.473Z,90570.97
2024-03-05T01:58:09.064Z,90569.59
2024-03-05T02:00:38.846Z,90576.94
2024-03-05T02:03:06.211Z,90577.09
2024-03-05T02:05:34.053Z,90572.34
2024-03-05T02:08:01.598Z,90567.41
2024-03-05T02:10:28.511Z,90576.94
2024-03-05T02:12:56.060Z,90575.13
2024-03-05T02:15:22.801Z,90583.13
2024-03-05T02:17:49.853Z,90576.81
2024-03-05T02:20:16.642Z,90579.72
2024-03-05T02:22:43.757Z,90572.19
2024-03-05T02:25:10.956Z,90573.88
2024-03-05T02:27:38.262Z,90574.34
2024-03-05T02:30:11.644Z,90572.66
2024-03-05T02:32:42.192Z,90575.88
2024-03-05T02:35:10.023Z,90573.44
2024-03-05T02:37:40.323Z,90577.72
2024-03-05T02:40:11.083Z,90577.88
2024-03-05T02:42:38.157Z,90567.13
2024-03-05T02:45:08.611Z,90576.03
2024-03-05T02:47:37.325Z,90578.03
2024-03-05T02:50:10.083Z,90588.03
2024-03-05T02:52:37.428Z,90572.50
2024-03-05T02:55:04.437Z,90573.75
2024-03-05T02:57:32.647Z,90574.50
2024-03-05T02:59:59.305Z,90568.34
2024-03-05T03:02:26.025Z,90564.53
2024-03-05T03:04:52.899Z,90567.41
2024-03-05T03:07:19.934Z,90562.50
2024-03-05T03:09:47.670Z,90570.19
2024-03-05T03:12:14.518Z,90563.13
2024-03-05T03:14:45.315Z,90571.09
2024-03-05T03:17:12.472Z,90562.19
2024-03-05T03:19:39.259Z,90558.50
2024-03-05T03:22:05.976Z,90558.63
2024-03-05T03:24:32.823Z,90559.13
2024-03-05T03:26:59.619Z,90555.28
2024-03-05T03:29:27.813Z,90553.00
2024-03-05T03:31:56.435Z,90555.88
2024-03-05T03:34:23.373Z,90560.38
2024-03-05T03:36:50.250Z,90558.66
2024-03-05T03:39:25.192Z,90556.38
2024-03-05T03:41:56.501Z,90565.41
2024-03-05T03:44:23.782Z,90561.72
2024-03-05T03:46:51.489Z,90559.75
2024-03-05T03:49:25.176Z,90561.28
2024-03-05T03:51:55.434Z,90559.44
2024-03-05T03:54:23.042Z,90551.72
2024-03-05T03:56:50.084Z,90554.97
2024-03-05T03:59:17.084Z,90556.19
2024-03-05T04:01:51.044Z,90558.50
2024-03-05T04:04:17.970Z,90557.09
2024-03-05T04:06:46.577Z,90562.47
2024-03-05T04:09:15.429Z,90561.38
2024-03-05T04:11:42.956Z,90558.31
2024-03-05T04:14:10.382Z,90568.25
2024-03-05T04:16:41.267Z,90565.94
2024-03-05T04:19:10.954Z,90567.59
2024-03-05T04:21:43.994Z,90566.38
2024-03-05T04:24:14.820Z,90574.53
2024-03-05T04:26:42.834Z,90568.22
2024-03-05T04:29:17.085Z,90566.81
2024-03-05T04:31:50.197Z,90568.22
2024-03-05T04:34:20.943Z,90564.91
2024-03-05T04:36:47.894Z,90572.06
2024-03-05T04:39:17.789Z,90565.31
2024-03-05T04:41:45.632Z,90573.31
2024-03-05T04:44:12.302Z,90571.47
2024-03-05T04:46:39.643Z,90582.94
2024-03-05T04:49:07.541Z,90575.69
2024-03-05T04:51:34.424Z,90572.69
2024-03-05T04:54:01.113Z,90577.97
2024-03-05T04:56:27.911Z,90575.47
2024-03-05T04:58:54.767Z,90580.59
2024-03-05T05:01:21.852Z,90583.28
2024-03-05T05:03:48.568Z,90579.00
2024-03-05T05:06:16.706Z,90584.13
2024-03-05T05:08:43.878Z,90588.53
2024-03-05T05:11:10.846Z,90590.22
2024-03-05T05:13:37.729Z,90581.19
2024-03-05T05:16:06.327Z,90585.19
2024-03-05T05:18:33.165Z,90580.44
2024-03-05T05:21:00.065Z,90592.22
2024-03-05T05:23:27.042Z,90575.56
2024-03-05T05:25:54.069Z,90582.97
2024-03-05T05:28:20.937Z,90589.25
2024-03-05T05:30:47.710Z,90586.00
2024-03-05T05:33:14.518Z,90589.53
2024-03-05T05:35:41.437Z,90589.75
2024-03-05T05:38:11.811Z,90588.53
2024-03-05T05:40:38.796Z,90586.44
2024-03-05T05:43:05.618Z,90587.97
2024-03-05T05:45:32.418Z,90586.88
2024-03-05T05:47:59.557Z,90591.97
2024-03-05T05:50:32.889Z,90596.44
2024-03-05T05:53:00.472Z,90598.66
2024-03-05T05:55:27.807Z,90582.22
2024-03-05T05:57:55.545Z,90590.28
2024-03-05T06:00:26.162Z,90586.31
2024-03-05T06:02:54.187Z,90584.03
2024-03-05T06:05:26.013Z,90598.25
2024-03-05T06:07:53.058Z,90593.63
2024-03-05T06:10:19.962Z,90597.34
2024-03-05T06:12:46.886Z,90597.53
2024-03-05T06:15:13.915Z,90599.56
2024-03-05T06:17:41.332Z,90601.72
2024-03-05T06:20:11.608Z,90592.63
2024-03-05T06:22:42.488Z,90606.81
2024-03-05T06:25:09.788Z,90604.22
2024-03-05T06:27:39.679Z,90607.38
2024-03-05T06:30:19.506Z,90611.88
2024-03-05T06:32:48.822Z,90614.00
2024-03-05T06:35:27.416Z,90613.69
2024-03-05T06:37:55.070Z,90614.84
2024-03-05T06:40:23.981Z,90611.13
2024-03-05T06:42:54.260Z,90610.44
2024-03-05T06:45:30.616Z,90612.09
2024-03-05T06:50:38.325Z,90606.19
2024-03-05T06:53:24.211Z,90613.38
2024-03-05T06:56:09.532Z,90605.97
2024-03-05T06:58:40.595Z,90616.75
2024-03-05T07:01:10.132Z,90614.78
2024-03-05T07:03:38.115Z,90623.00
2024-03-05T07:06:08.348Z,90611.84
2024-03-05T07:08:41.899Z,90618.94
2024-03-05T07:11:11.290Z,90625.56
2024-03-05T07:13:48.656Z,90619.28
2024-03-05T07:16:19.481Z,90623.41
2024-03-05T07:18:50.864Z,90626.31
2024-03-05T07:21:22.844Z,90633.34
2024-03-05T07:23:53.799Z,90631.13
2024-03-05T07:26:21.695Z,90629.16
2024-03-05T07:28:48.833Z,90622.75
2024-03-05T07:31:16.448Z,90635.03
2024-03-05T07:33:44.550Z,90625.88
2024-03-05T07:36:12.054Z,90626.09
2024-03-05T07:38:39.897Z,90633.09
2024-03-05T07:41:17.147Z,90630.38
2024-03-05T07:43:49.301Z,90636.97
2024-03-05T07:46:18.737Z,90639.94
2024-03-05T07:48:45.692Z,90634.84
2024-03-05T07:51:13.056Z,90643.59
2024-03-05T07:53:42.770Z,90641.44
2024-03-05T07:56:09.832Z,90642.34
2024-03-05T07:58:36.568Z,90649.59
2024-03-05T08:01:03.423Z,90646.78
2024-03-05T08:03:30.151Z,90650.78
2024-03-05T08:05:58.647Z,90642.19
2024-03-05T08:08:26.698Z,90647.91
2024-03-05T08:10:53.564Z,90654.97
2024-03-05T08:13:21.346Z,90647.88
2024-03-05T08:15:48.052Z,90655.28
2024-03-05T08:18:14.795Z,90657.75
2024-03-05T08:20:41.586Z,90665.44
2024-03-05T08:23:08.980Z,90660.06
2024-03-05T08:25:35.813Z,90659.50
2024-03-05T08:28:02.534Z,90663.44
2024-03-05T08:30:33.632Z,90662.06
2024-03-05T08:33:04.865Z,90659.75
2024-03-05T08:35:32.550Z,90660.97
2024-03-05T08:38:01.091Z,90657.47
2024-03-05T08:40:33.611Z,90657.94
2024-03-05T08:43:04.864Z,90664.09
2024-03-05T08:45:32.410Z,90668.03
2024-03-05T08:47:59.519Z,90669.59
2024-03-05T08:50:30.301Z,90680.53
2024-03-05T08:52:59.373Z,90669.78
2024-03-05T08:55:27.196Z,90680.97
2024-03-05T08:57:55.038Z,90674.69
2024-03-05T09:00:32.728Z,90673.75
2024-03-05T09:03:09.199Z,90683.28
2024-03-05T09:05:36.856Z,90680.06
2024-03-05T09:08:04.139Z,90684.66
2024-03-05T09:10:31.666Z,90688.53
2024-03-05T09:12:59.689Z,90693.59
2024-03-05T09:15:29.446Z,90692.50
2024-03-05T09:17:56.242Z,90683.59
2024-03-05T09:20:24.543Z,90690.53
2024-03-05T09:22:51.396Z,90690.53
2024-03-05T09:25:18.508Z,90692.06
2024-03-05T09:27:48.253Z,90689.00
2024-03-05T09:30:17.075Z,90689.44
2024-03-05T09:32:45.491Z,90687.59
2024-03-05T09:35:14.283Z,90695.75
2024-03-05T09:37:41.760Z,90683.28
2024-03-05T09:40:17.068Z,90694.97
2024-03-05T09:42:44.289Z,90694.50
2024-03-05T09:45:15.311Z,90687.16
2024-03-05T09:50:12.771Z,90683.91
2024-03-05T09:52:39.804Z,90689.19
2024-03-05T09:55:07.673Z,90687.34
2024-03-05T09:57:35.160Z,90683.94
2024-03-05T10:00:01.781Z,90684.66
2024-03-05T10:02:29.957Z,90684.53
2024-03-05T10:04:58.097Z,90683.78
2024-03-05T10:07:27.040Z,90685.16
2024-03-05T10:10:12.576Z,90689.63
2024-03-05T10:12:40.680Z,90689.34
2024-03-05T10:15:23.870Z,90692.09
2024-03-05T10:17:52.169Z,90691.19
2024-03-05T10:20:29.588Z,90688.22
2024-03-05T10:23:02.413Z,90693.94
2024-03-05T10:25:30.162Z,90689.78
2024-03-05T10:27:57.244Z,90695.59
2024-03-05T10:30:33.154Z,90687.81
2024-03-05T10:33:11.068Z,90702.53
2024-03-05T10:35:39.525Z,90701.47
2024-03-05T10:38:11.887Z,90703.38
2024-03-05T10:40:39.448Z,90700.84
2024-03-05T10:43:08.131Z,90701.28
2024-03-05T10:45:36.095Z,90703.78
2024-03-05T10:48:02.919Z,90700.56
2024-03-05T10:50:29.865Z,90701.22
2024-03-05T10:52:57.231Z,90699.38
2024-03-05T10:55:24.560Z,90700.44
2024-03-05T10:58:15.708Z,90697.88
2024-03-05T11:00:45.049Z,90698.44
2024-03-05T11:03:13.925Z,90690.56
2024-03-05T11:06:01.502Z,90688.59
2024-03-05T11:08:28.183Z,90693.00
2024-03-05T11:11:00.390Z,90689.41
2024-03-05T11:13:27.727Z,90689.13
2024-03-05T11:15:54.396Z,90685.34
2024-03-05T11:18:32.705Z,90680.09
2024-03-05T11:21:12.830Z,90677.91
2024-03-05T11:23:43.827Z,90683.47
2024-03-05T11:26:21.368Z,90684.47
2024-03-05T11:28:48.817Z,90682.63
2024-03-05T11:31:22.477Z,90680.59
2024-03-05T11:33:59.592Z,90673.81
2024-03-05T11:36:26.297Z,90684.53
2024-03-05T11:39:08.792Z,90677.47
2024-03-05T11:41:39.954Z,90680.13
2024-03-05T11:44:06.711Z,90684.53
2024-03-05T11:46:42.901Z,90689.09
2024-03-05T11:49:10.483Z,90690.66
2024-03-05T11:51:38.629Z,90690.50
2024-03-05T11:54:05.266Z,90690.63
2024-03-05T11:56:33.152Z,90685.44
2024-03-05T11:59:00.040Z,90689.53
2024-03-05T12:01:27.034Z,90682.44
2024-03-05T12:04:01.897Z,90687.63
2024-03-05T12:06:28.573Z,90683.84
2024-03-05T12:08:58.022Z,90683.03
2024-03-05T12:11:24.833Z,90682.00
2024-03-05T12:13:51.644Z,90688.03
2024-03-05T12:16:18.446Z,90686.59
2024-03-05T12:18:45.158Z,90691.44
2024-03-05T12:21:11.918Z,90684.56
2024-03-05T12:23:42.056Z,90686.00
2024-03-05T12:26:10.512Z,90694.63
2024-03-05T12:28:37.362Z,90692.44
2024-03-05T12:31:04.303Z,90692.84
2024-03-05T12:33:31.894Z,90699.53
2024-03-05T12:35:59.629Z,90689.34
2024-03-05T12:38:26.949Z,90700.34
2024-03-05T12:41:00.747Z,90698.34
2024-03-05T12:43:30.354Z,90700.94
2024-03-05T12:46:03.734Z,90704.25
2024-03-05T12:48:33.893Z,90708.25
2024-03-05T12:51:00.913Z,90705.81
2024-03-05T12:53:27.851Z,90706.09
2024-03-05T12:56:02.616Z,90714.22
2024-03-05T12:58:40.550Z,90706.59
2024-03-05T13:01:07.904Z,90708.28
2024-03-05T13:03:35.326Z,90721.84
2024-03-05T13:06:02.345Z,90716.16
2024-03-05T13:08:29.172Z,90712.13
2024-03-05T13:10:56.855Z,90719.81
2024-03-05T13:13:23.751Z,90717.75
2024-03-05T13:15:50.518Z,90715.03
2024-03-05T13:18:17.594Z,90714.56
2024-03-05T13:20:44.273Z,90721.16
2024-03-05T13:23:11.131Z,90721.03
2024-03-05T13:25:38.018Z,90731.34
2024-03-05T13:28:06.529Z,90729.03
2024-03-05T13:30:33.349Z,90731.03
2024-03-05T13:33:03.785Z,90732.81
2024-03-05T13:35:31.910Z,90732.56
2024-03-05T13:37:59.018Z,90744.09
2024-03-05T13:40:26.003Z,90748.81
2024-03-05T13:42:52.865Z,90745.09
2024-03-05T13:45:20.369Z,90748.97
2024-03-05T13:47:47.168Z,90750.00
2024-03-05T13:50:14.808Z,90743.41
2024-03-05T13:52:43.828Z,90754.16
2024-03-05T13:55:15.048Z,90739.47
2024-03-05T13:57:41.894Z,90751.38
2024-03-05T14:00:09.721Z,90746.19
2024-03-05T14:02:36.890Z,90748.81
2024-03-05T14:05:04.481Z,90759.25
2024-03-05T14:07:32.034Z,90761.44
2024-03-05T14:09:58.908Z,90772.25
2024-03-05T14:12:25.786Z,90777.00
2024-03-05T14:14:52.699Z,90771.03
2024-03-05T14:17:19.552Z,90775.19
2024-03-05T14:19:46.614Z,90785.16
2024-03-05T14:22:13.730Z,90786.44
2024-03-05T14:24:40.577Z,90786.19
2024-03-05T14:27:07.277Z,90783.91
2024-03-05T14:29:34.100Z,90790.69
2024-03-05T14:32:01.191Z,90792.25
2024-03-05T14:34:28.384Z,90797.28
2024-03-05T14:36:55.193Z,90800.38
2024-03-05T14:39:22.478Z,90791.50
2024-03-05T14:41:49.234Z,90798.94
2024-03-05T14:44:16.529Z,90796.84
2024-03-05T14:46:43.449Z,90807.03
2024-03-05T14:49:12.376Z,90800.66
2024-03-05T14:51:39.340Z,90804.47
2024-03-05T14:54:08.256Z,90808.69
2024-03-05T14:56:37.606Z,90813.25
2024-03-05T14:59:05.850Z,90802.75
2024-03-05T15:01:33.764Z,90810.81
2024-03-05T15:04:01.671Z,90810.03
2024-03-05T15:06:28.435Z,90817.00
2024-03-05T15:08:55.737Z,90809.22
2024-03-05T15:11:23.748Z,90820.06
2024-03-05T15:13:50.813Z,90820.28
2024-03-05T15:16:17.696Z,90823.91
2024-03-05T15:18:44.507Z,90835.53
2024-03-05T15:21:17.308Z,90836.13
2024-03-05T15:23:44.194Z,90837.06
2024-03-05T15:26:11.806Z,90836.38
2024-03-05T15:28:39.040Z,90843.50
2024-03-05T15:31:10.622Z,90849.19
2024-03-05T15:33:43.378Z,90848.28
2024-03-05T15:36:10.006Z,90856.47
2024-03-05T15:38:36.826Z,90860.81
2024-03-05T15:41:05.103Z,90875.56
2024-03-05T15:43:35.188Z,90876.78
2024-03-05T15:46:01.996Z,90880.34
2024-03-05T15:48:31.736Z,90888.03
2024-03-05T15:51:01.842Z,90890.75
2024-03-05T15:53:29.071Z,90894.06
2024-03-05T15:56:13.871Z,90901.66
2024-03-05T15:58:43.798Z,90903.00
2024-03-05T16:01:11.410Z,90902.09
2024-03-05T16:03:47.857Z,90906.41
2024-03-05T16:06:27.846Z,90912.16
2024-03-05T16:08:54.732Z,90925.13
2024-03-05T16:11:21.477Z,90920.84
2024-03-05T16:13:48.279Z,90925.56
2024-03-05T16:16:15.737Z,90928.28
2024-03-05T16:18:44.250Z,90933.03
2024-03-05T16:21:11.018Z,90935.66
2024-03-05T16:23:37.801Z,90941.09
2024-03-05T16:26:06.002Z,90940.34
2024-03-05T16:28:38.602Z,90947.59
2024-03-05T16:31:06.211Z,90955.19
2024-03-05T16:33:34.046Z,90949.69
2024-03-05T16:36:00.794Z,90949.16
2024-03-05T16:38:30.013Z,90957.34
2024-03-05T16:40:57.941Z,90955.88
2024-03-05T16:43:25.305Z,90960.69
2024-03-05T16:45:53.574Z,90962.19
2024-03-05T16:48:20.552Z,90970.88
2024-03-05T16:50:47.399Z,90979.53
2024-03-05T16:53:16.192Z,90975.84
2024-03-05T16:55:44.872Z,90979.69
2024-03-05T16:58:15.067Z,90979.97
2024-03-05T17:00:56.246Z,90972.84
2024-03-05T17:03:25.509Z,90976.34
2024-03-05T17:05:54.152Z,90994.78
2024-03-05T17:08:21.658Z,90998.06
2024-03-05T17:10:49.514Z,90996.50
2024-03-05T17:13:20.575Z,91010.66
2024-03-05T17:15:52.853Z,91002.47
2024-03-05T17:18:20.501Z,91001.13
2024-03-05T17:20:48.097Z,91006.97
2024-03-05T17:23:22.239Z,91009.63
2024-03-05T17:25:53.165Z,91008.94
2024-03-05T17:28:20.124Z,91016.13
2024-03-05T17:30:47.420Z,91007.09
2024-03-05T17:33:15.859Z,91011.31
2024-03-05T17:35:43.138Z,91021.28
2024-03-05T17:38:14.226Z,91005.94
2024-03-05T17:40:41.526Z,91014.38
2024-03-05T17:43:08.695Z,91015.16
2024-03-05T17:45:35.558Z,91018.53
2024-03-05T17:48:08.697Z,91020.09
2024-03-05T17:50:36.161Z,91022.69
2024-03-05T17:53:06.304Z,91022.47
2024-03-05T17:55:33.771Z,91030.31
2024-03-05T17:58:00.693Z,91033.41
2024-03-05T18:00:27.469Z,91038.38
2024-03-05T18:02:55.704Z,91045.16
2024-03-05T18:05:25.621Z,91043.97
2024-03-05T18:07:52.825Z,91039.41
2024-03-05T18:10:20.938Z,91045.09
2024-03-05T18:12:49.935Z,91040.75
2024-03-05T18:15:25.227Z,91047.03
2024-03-05T18:17:53.018Z,91043.06
2024-03-05T18:20:21.017Z,91045.84
2024-03-05T18:22:48.174Z,91041.47
2024-03-05T18:25:18.557Z,91048.47
2024-03-05T18:27:57.426Z,91048.91
2024-03-05T18:30:32.544Z,91053.66
2024-03-05T18:33:00.426Z,91055.91
2024-03-05T18:35:28.195Z,91059.78
2024-03-05T18:37:55.244Z,91072.06
2024-03-05T18:40:22.567Z,91063.38
2024-03-05T18:42:50.420Z,91069.38
2024-03-05T18:45:17.595Z,91068.00
2024-03-05T18:47:58.420Z,91072.38
2024-03-05T18:50:30.305Z,91077.66
2024-03-05T18:53:02.463Z,91076.81
2024-03-05T18:55:31.305Z,91083.66
2024-03-05T18:57:58.121Z,91087.31
2024-03-05T19:00:25.095Z,91097.75
2024-03-05T19:02:55.019Z,91093.03
2024-03-05T19:05:23.388Z,91090.66
2024-03-05T19:07:50.587Z,91099.47
2024-03-05T19:10:18.427Z,91096.13
2024-03-05T19:12:45.268Z,91093.81
2024-03-05T19:15:14.060Z,91095.38
2024-03-05T19:17:42.062Z,91101.19
2024-03-05T19:20:10.751Z,91101.75
2024-03-05T19:22:39.812Z,91106.63
2024-03-05T19:25:11.776Z,91103.31
2024-03-05T19:27:39.803Z,91100.81
2024-03-05T19:30:11.608Z,91108.81
2024-03-05T19:32:43.240Z,91101.47
2024-03-05T19:35:11.640Z,91101.59
2024-03-05T19:37:41.104Z,91099.66
2024-03-05T19:40:09.119Z,91095.16
2024-03-05T19:42:35.829Z,91110.84
2024-03-05T19:45:02.558Z,91102.50
2024-03-05T19:47:30.429Z,91105.50
2024-03-05T19:49:57.325Z,91112.19
2024-03-05T19:52:24.409Z,91110.41
2024-03-05T19:54:51.225Z,91110.41
2024-03-05T19:57:19.046Z,91110.31
2024-03-05T19:59:47.172Z,91111.94
2024-03-05T20:02:13.976Z,91114.47
2024-03-05T20:04:40.783Z,91111.44
2024-03-05T20:07:07.526Z,91110.06
2024-03-05T20:09:36.184Z,91126.19
2024-03-05T20:12:03.157Z,91124.75
2024-03-05T20:14:30.011Z,91126.56
2024-03-05T20:16:56.795Z,91133.19
2024-03-05T20:19:23.566Z,91125.75
2024-03-05T20:21:50.279Z,91126.63
2024-03-05T20:24:17.041Z,91133.25
2024-03-05T20:26:45.936Z,91131.72
2024-03-05T20:29:12.865Z,91131.22
2024-03-05T20:31:39.651Z,91132.66
2024-03-05T20:34:06.777Z,91135.56
2024-03-05T20:36:34.356Z,91134.91
2024-03-05T20:39:01.241Z,91139.78
2024-03-05T20:41:27.943Z,91150.28
2024-03-05T20:43:54.728Z,91151.84
2024-03-05T20:46:21.585Z,91153.25
2024-03-05T20:48:48.346Z,91151.31
2024-03-05T20:51:15.410Z,91150.97
2024-03-05T20:53:43.592Z,91149.31
2024-03-05T20:56:10.472Z,91147.06
2024-03-05T20:58:39.011Z,91134.69
2024-03-05T21:01:07.456Z,91142.44
2024-03-05T21:03:34.213Z,91142.84
2024-03-05T21:06:00.884Z,91146.44
2024-03-05T21:08:27.686Z,91147.34
2024-03-05T21:10:54.545Z,91149.97
2024-03-05T21:13:25.951Z,91147.00
2024-03-05T21:15:53.111Z,91145.78
2024-03-05T21:18:20.001Z,91154.25
2024-03-05T21:20:46.750Z,91144.28
2024-03-05T21:23:16.797Z,91145.38
2024-03-05T21:25:56.544Z,91143.78
2024-03-05T21:28:31.723Z,91144.97
2024-03-05T21:31:00.504Z,91145.53
2024-03-05T21:33:27.181Z,91156.03
2024-03-05T21:35:53.942Z,91162.69
2024-03-05T21:38:20.657Z,91152.78
2024-03-05T21:40:47.794Z,91153.97
2024-03-05T21:43:16.414Z,91153.19
2024-03-05T21:45:43.903Z,91155.09
2024-03-05T21:48:10.683Z,91155.56
2024-03-05T21:50:37.355Z,91163.47
2024-03-05T21:53:04.170Z,91169.31
2024-03-05T21:55:30.956Z,91164.09
2024-03-05T21:57:57.611Z,91162.31
2024-03-05T22:00:25.042Z,91160.00
2024-03-05T22:02:51.834Z,91162.69
2024-03-05T22:05:18.868Z,91164.59
2024-03-05T22:07:45.756Z,91165.56
2024-03-05T22:10:13.000Z,91165.72
2024-03-05T22:12:40.066Z,91160.69
2024-03-05T22:15:07.889Z,91175.75
2024-03-05T22:17:35.278Z,91172.44
2024-03-05T22:20:02.255Z,91171.78
2024-03-05T22:22:29.141Z,91181.63
2024-03-05T22:24:56.822Z,91187.16
2024-03-05T22:27:23.675Z,91176.91
2024-03-05T22:29:50.335Z,91181.97
2024-03-05T22:32:17.107Z,91181.97
2024-03-05T22:34:43.788Z,91182.38
2024-03-05T22:37:10.735Z,91186.91
2024-03-05T22:39:38.766Z,91188.38
2024-03-05T22:42:05.445Z,91188.22
2024-03-05T22:44:32.298Z,91187.13
2024-03-05T22:46:59.108Z,91191.38
2024-03-05T22:49:25.863Z,91196.34
2024-03-05T22:51:52.572Z,91195.88
2024-03-05T22:54:19.333Z,91198.41
2024-03-05T22:56:53.984Z,91194.34
2024-03-05T22:59:20.805Z,91198.41
2024-03-05T23:01:47.986Z,91194.34
2024-03-05T23:04:14.794Z,91205.41
2024-03-05T23:06:41.679Z,91202.88
2024-03-05T23:09:08.391Z,91211.44
2024-03-05T23:11:35.366Z,91208.81
2024-03-05T23:14:02.171Z,91211.00
2024-03-05T23:16:28.927Z,91215.56
2024-03-05T23:18:55.671Z,91213.31
2024-03-05T23:21:22.355Z,91216.28
2024-03-05T23:23:50.544Z,91221.38
2024-03-05T23:26:19.260Z,91215.94
2024-03-05T23:28:46.143Z,91214.38
2024-03-05T23:31:12.807Z,91219.03
2024-03-05T23:33:39.655Z,91222.16
2024-03-05T23:36:06.602Z,91228.59
2024-03-05T23:38:33.253Z,91225.84
2024-03-05T23:41:00.643Z,91229.56
2024-03-05T23:43:27.372Z,91224.84
2024-03-05T23:45:55.522Z,91230.09
2024-03-05T23:48:22.426Z,91229.28
2024-03-05T23:50:49.530Z,91228.16
2024-03-05T23:53:17.222Z,91236.06
2024-03-05T23:55:44.973Z,91228.53
2024-03-05T23:58:11.629Z,91223.28
